createdAt,value
2023-11-24T00:01:31.483Z,95366.00
2023-11-24T00:06:59.428Z,95378.00
2023-11-24T00:12:27.868Z,95351.00
2023-11-24T00:17:58.033Z,95357.00
2023-11-24T00:23:26.070Z,95373.00
2023-11-24T00:28:56.654Z,95335.00
2023-11-24T00:34:24.631Z,95318.00
2023-11-24T00:39:52.792Z,95318.00
2023-11-24T00:45:21.000Z,95312.00
2023-11-24T00:50:48.947Z,95304.00
2023-11-24T00:56:17.220Z,95319.00
2023-11-24T01:01:45.381Z,95298.00
2023-11-24T01:07:13.367Z,95278.00
2023-11-24T01:12:41.691Z,95279.00
2023-11-24T01:18:09.780Z,95274.00
2023-11-24T01:23:39.220Z,95252.00
2023-11-24T01:29:07.455Z,95249.00
2023-11-24T01:34:35.447Z,95271.00
2023-11-24T01:40:06.191Z,95255.00
2023-11-24T01:45:34.559Z,95232.00
2023-11-24T01:51:02.640Z,95230.00
2023-11-24T01:56:32.221Z,95183.00
2023-11-24T02:02:00.773Z,95187.00
2023-11-24T02:07:31.095Z,95207.00
2023-11-24T02:12:59.927Z,95198.00
2023-11-24T02:18:28.525Z,95164.00
2023-11-24T02:23:56.313Z,95181.00
2023-11-24T02:29:24.818Z,95185.00
2023-11-24T02:34:52.702Z,95190.00
2023-11-24T02:40:20.985Z,95178.00
2023-11-24T02:45:49.006Z,95176.00
2023-11-24T02:51:17.022Z,95178.00
2023-11-24T02:56:45.230Z,95154.00
2023-11-24T03:02:13.370Z,95157.00
2023-11-24T03:07:41.350Z,95152.00
2023-11-24T03:13:09.221Z,95137.00
2023-11-24T03:18:37.605Z,95149.00
2023-11-24T03:24:07.625Z,95137.00
2023-11-24T03:29:37.604Z,95131.00
2023-11-24T03:35:06.634Z,95104.00
2023-11-24T03:40:35.331Z,95122.00
2023-11-24T03:46:03.497Z,95091.00
2023-11-24T03:51:34.451Z,95086.00
2023-11-24T03:57:02.235Z,95080.00
2023-11-24T04:02:30.171Z,95092.00
2023-11-24T04:07:58.558Z,95083.00
2023-11-24T04:13:26.420Z,95062.00
2023-11-24T04:18:55.279Z,95074.00
2023-11-24T04:24:24.823Z,95066.00
2023-11-24T04:29:53.301Z,95077.00
2023-11-24T04:35:21.317Z,95043.00
2023-11-24T04:40:49.275Z,95051.00
2023-11-24T04:46:17.201Z,95027.00
2023-11-24T04:51:45.445Z,95028.00
2023-11-24T04:57:13.392Z,95012.00
2023-11-24T05:02:41.398Z,95005.00
2023-11-24T05:08:09.639Z,95023.00
2023-11-24T05:13:37.574Z,94976.00
2023-11-24T05:19:06.127Z,94984.00
2023-11-24T05:24:34.030Z,94983.00
2023-11-24T05:30:02.173Z,94984.00
2023-11-24T05:35:30.770Z,94977.00
2023-11-24T05:41:00.980Z,95013.00
2023-11-24T05:46:30.031Z,94990.00
2023-11-24T05:51:58.137Z,94965.00
2023-11-24T05:57:28.507Z,94967.00
2023-11-24T06:02:57.224Z,94958.00
2023-11-24T06:08:25.524Z,94963.00
2023-11-24T06:13:54.401Z,94963.00
2023-11-24T06:19:22.354Z,94946.00
2023-11-24T06:24:50.221Z,94936.00
2023-11-24T06:30:18.590Z,94936.00
2023-11-24T06:35:46.539Z,94949.00
2023-11-24T06:41:14.500Z,94932.00
2023-11-24T06:46:42.800Z,94942.00
2023-11-24T06:52:10.765Z,94932.00
2023-11-24T06:57:39.681Z,94927.00
2023-11-24T07:03:08.311Z,94938.00
2023-11-24T07:08:36.793Z,94937.00
2023-11-24T07:14:05.260Z,94910.00
2023-11-24T07:19:33.278Z,94915.00
2023-11-24T07:25:01.424Z,94918.00
2023-11-24T07:30:29.759Z,94925.00
2023-11-24T07:35:57.851Z,94976.00
2023-11-24T07:41:26.337Z,94965.00
2023-11-24T07:46:54.842Z,94977.00
2023-11-24T07:52:22.914Z,94974.00
2023-11-24T07:57:50.912Z,94960.00
2023-11-24T08:03:19.943Z,94952.00
2023-11-24T08:08:48.084Z,94938.00
2023-11-24T08:14:16.132Z,94933.00
2023-11-24T08:19:44.391Z,94940.00
2023-11-24T08:25:13.259Z,94936.00
2023-11-24T08:30:41.595Z,94927.00
2023-11-24T08:36:10.702Z,94911.00
2023-11-24T08:41:40.837Z,94908.00
2023-11-24T08:47:09.004Z,94914.00
2023-11-24T08:52:37.575Z,94910.00
2023-11-24T08:58:06.529Z,94894.00
2023-11-24T09:03:35.044Z,94881.00
2023-11-24T09:09:10.189Z,94866.00
2023-11-24T09:14:41.583Z,94869.00
2023-11-24T09:20:12.753Z,94865.00
2023-11-24T09:25:41.483Z,94859.00
2023-11-24T09:31:14.329Z,94864.00
2023-11-24T09:36:44.139Z,94870.00
2023-11-24T09:42:24.972Z,94870.00
2023-11-24T09:47:53.999Z,94872.00
2023-11-24T09:53:35.198Z,94851.00
2023-11-24T09:59:10.032Z,94823.00
2023-11-24T10:04:46.243Z,94813.00
2023-11-24T10:10:27.244Z,94800.00
2023-11-24T10:16:03.486Z,94794.00
2023-11-24T10:21:33.229Z,94776.00
2023-11-24T10:27:23.777Z,94755.00
2023-11-24T10:32:53.484Z,94767.00
2023-11-24T10:38:24.670Z,94751.00
2023-11-24T10:43:53.414Z,94740.00
2023-11-24T10:49:43.522Z,94730.00
2023-11-24T10:55:12.305Z,94704.00
2023-11-24T11:00:41.325Z,94716.00
2023-11-24T11:06:22.802Z,94709.00
2023-11-24T11:12:50.072Z,94700.00
2023-11-24T11:18:26.792Z,94668.00
2023-11-24T11:23:59.429Z,94647.00
2023-11-24T11:29:30.188Z,94618.00
2023-11-24T11:34:58.127Z,94617.00
2023-11-24T11:40:34.964Z,94592.00
2023-11-24T11:46:04.668Z,94586.00
2023-11-24T11:51:37.924Z,94573.00
2023-11-24T11:57:06.933Z,94577.00
2023-11-24T12:02:35.165Z,94569.00
2023-11-24T12:08:03.464Z,94529.00
2023-11-24T12:13:33.320Z,94547.00
2023-11-24T12:19:06.010Z,94517.00
2023-11-24T12:25:01.648Z,94525.00
2023-11-24T12:30:42.608Z,94505.00
2023-11-24T12:36:36.481Z,94503.00
2023-11-24T12:42:07.810Z,94507.00
2023-11-24T12:53:07.674Z,94501.00
2023-11-24T12:58:36.685Z,94525.00
2023-11-24T13:04:16.999Z,94515.00
2023-11-24T13:09:46.593Z,94500.00
2023-11-24T13:15:25.602Z,94513.00
2023-11-24T13:20:58.152Z,94508.00
2023-11-24T13:26:28.510Z,94472.00
2023-11-24T13:32:08.967Z,94432.00
2023-11-24T13:37:37.033Z,94419.00
2023-11-24T13:43:12.393Z,94428.00
2023-11-24T13:48:43.734Z,94408.00
2023-11-24T13:54:15.326Z,94421.00
2023-11-24T13:59:45.339Z,94414.00
2023-11-24T14:05:15.300Z,94400.00
2023-11-24T14:10:43.298Z,94407.00
2023-11-24T14:16:11.328Z,94418.00
2023-11-24T14:21:41.009Z,94421.00
2023-11-24T14:27:08.929Z,94407.00
2023-11-24T14:32:39.107Z,94437.00
2023-11-24T14:38:07.472Z,94444.00
2023-11-24T14:43:37.753Z,94440.00
2023-11-24T14:49:11.858Z,94423.00
2023-11-24T14:54:40.138Z,94427.00
2023-11-24T15:00:31.730Z,94427.00
2023-11-24T15:06:06.825Z,94427.00
2023-11-24T15:11:41.913Z,94455.00
2023-11-24T15:17:17.291Z,94448.00
2023-11-24T15:22:45.266Z,94439.00
2023-11-24T15:28:20.533Z,94440.00
2023-11-24T15:33:50.083Z,94450.00
2023-11-24T15:39:35.989Z,94455.00
2023-11-24T15:45:05.748Z,94455.00
2023-11-24T15:50:34.102Z,94456.00
2023-11-24T15:56:02.241Z,94456.00
2023-11-24T16:01:35.089Z,94465.00
2023-11-24T16:07:11.558Z,94450.00
2023-11-24T16:12:40.141Z,94449.00
2023-11-24T16:18:12.604Z,94429.00
2023-11-24T16:23:40.662Z,94451.00
2023-11-24T16:29:08.615Z,94451.00
2023-11-24T16:34:36.835Z,94439.00
2023-11-24T16:40:09.404Z,94454.00
2023-11-24T16:45:37.653Z,94462.00
2023-11-24T16:51:05.807Z,94470.00
2023-11-24T16:56:35.019Z,94468.00
2023-11-24T17:02:05.878Z,94533.00
2023-11-24T17:07:34.132Z,94550.00
2023-11-24T17:13:03.396Z,94543.00
2023-11-24T17:18:31.653Z,94529.00
2023-11-24T17:24:00.293Z,94514.00
2023-11-24T17:29:28.699Z,94531.00
2023-11-24T17:34:56.977Z,94530.00
2023-11-24T17:40:25.086Z,94531.00
2023-11-24T17:45:53.929Z,94531.00
2023-11-24T17:51:26.628Z,94543.00
2023-11-24T17:56:54.888Z,94541.00
2023-11-24T18:02:24.368Z,94535.00
2023-11-24T18:07:52.436Z,94534.00
2023-11-24T18:13:21.001Z,94546.00
2023-11-24T18:18:49.066Z,94540.00
2023-11-24T18:24:20.437Z,94535.00
2023-11-24T18:29:49.331Z,94536.00
2023-11-24T18:35:18.082Z,94538.00
2023-11-24T18:40:47.239Z,94551.00
2023-11-24T18:46:15.432Z,94534.00
2023-11-24T18:51:44.378Z,94532.00
2023-11-24T18:57:12.794Z,94536.00
2023-11-24T19:02:41.092Z,94535.00
2023-11-24T19:08:09.984Z,94553.00
2023-11-24T19:13:39.007Z,94548.00
2023-11-24T19:19:07.764Z,94550.00
2023-11-24T19:24:36.234Z,94545.00
2023-11-24T19:30:04.580Z,94538.00
2023-11-24T19:35:32.676Z,94544.00
2023-11-24T19:41:00.699Z,94554.00
2023-11-24T19:46:29.481Z,94543.00
2023-11-24T19:51:58.804Z,94539.00
2023-11-24T19:57:27.248Z,94555.00
2023-11-24T20:02:55.512Z,94554.00
2023-11-24T20:08:24.083Z,94547.00
2023-11-24T20:13:53.822Z,94530.00
2023-11-24T20:19:22.163Z,94546.00
2023-11-24T20:24:51.474Z,94539.00
2023-11-24T20:30:19.992Z,94545.00
2023-11-24T20:35:48.611Z,94529.00
2023-11-24T20:41:18.667Z,94522.00
2023-11-24T20:46:46.870Z,94526.00
2023-11-24T20:52:16.248Z,94528.00
2023-11-24T20:57:46.044Z,94545.00
2023-11-24T21:03:20.190Z,94534.00
2023-11-24T21:08:48.922Z,94526.00
2023-11-24T21:14:19.007Z,94515.00
2023-11-24T21:19:47.058Z,94510.00
2023-11-24T21:25:15.539Z,94494.00
2023-11-24T21:30:45.527Z,94484.00
2023-11-24T21:36:14.781Z,94486.00
2023-11-24T21:41:46.532Z,94469.00
2023-11-24T21:47:16.901Z,94463.00
2023-11-24T21:52:45.685Z,94467.00
2023-11-24T21:58:14.551Z,94465.00
2023-11-24T22:03:42.664Z,94456.00
2023-11-24T22:09:11.554Z,94453.00
2023-11-24T22:14:39.805Z,94445.00
2023-11-24T22:20:12.159Z,94451.00
2023-11-24T22:25:40.640Z,94442.00
2023-11-24T22:31:17.577Z,94443.00
2023-11-24T22:36:46.081Z,94437.00
2023-11-24T22:42:13.994Z,94436.00
2023-11-24T22:47:46.831Z,94438.00
2023-11-24T22:53:15.271Z,94421.00
2023-11-24T22:58:43.755Z,94426.00
2023-11-24T23:04:15.074Z,94421.00
2023-11-24T23:09:45.704Z,94421.00
2023-11-24T23:15:16.053Z,94406.00
2023-11-24T23:20:44.356Z,94404.00
2023-11-24T23:26:13.373Z,94389.00
2023-11-24T23:31:42.963Z,94385.00
2023-11-24T23:37:11.756Z,94373.00
2023-11-24T23:42:40.232Z,94380.00
2023-11-24T23:48:09.747Z,94368.00
2023-11-24T23:53:38.198Z,94357.00
2023-11-24T23:59:06.081Z,94355.00
